createdAt,value
2023-06-07T00:01:09.161Z,60.32
2023-06-07T00:03:49.797Z,60.73
2023-06-07T00:06:30.937Z,60.67
2023-06-07T00:09:10.799Z,61.05
2023-06-07T00:11:50.118Z,61.17
2023-06-07T00:14:34.528Z,61.33
2023-06-07T00:17:13.925Z,61.37
2023-06-07T00:19:55.050Z,61.36
2023-06-07T00:22:36.418Z,61.44
2023-06-07T00:25:16.585Z,61.34
2023-06-07T00:27:55.960Z,61.81
2023-06-07T00:30:40.548Z,61.83
2023-06-07T00:33:19.898Z,62.09
2023-06-07T00:35:59.184Z,62.48
2023-06-07T00:38:38.491Z,62.35
2023-06-07T00:41:18.037Z,62.13
2023-06-07T00:43:57.655Z,62.30
2023-06-07T00:46:42.224Z,62.37
2023-06-07T00:49:23.185Z,62.16
2023-06-07T00:52:02.771Z,62.10
2023-06-07T00:54:42.360Z,61.91
2023-06-07T00:57:23.358Z,61.92
2023-06-07T01:00:06.316Z,61.86
2023-06-07T01:02:54.244Z,62.10
2023-06-07T01:05:34.125Z,62.21
2023-06-07T01:08:13.936Z,62.19
2023-06-07T01:10:54.478Z,62.43
2023-06-07T01:13:34.551Z,62.76
2023-06-07T01:16:16.088Z,62.93
2023-06-07T01:19:00.749Z,63.00
2023-06-07T01:21:42.051Z,63.09
2023-06-07T01:24:26.686Z,63.14
2023-06-07T01:27:06.707Z,63.10
2023-06-07T01:29:47.535Z,63.05
2023-06-07T01:32:27.592Z,62.78
2023-06-07T01:35:07.990Z,62.85
2023-06-07T01:37:49.207Z,63.30
2023-06-07T01:40:35.908Z,63.48
2023-06-07T01:43:16.513Z,63.49
2023-06-07T01:45:57.000Z,63.45
2023-06-07T01:48:36.361Z,63.39
2023-06-07T01:51:15.738Z,63.38
2023-06-07T01:53:57.140Z,63.32
2023-06-07T01:56:52.088Z,63.37
2023-06-07T01:59:41.542Z,63.71
2023-06-07T02:02:28.714Z,64.12
2023-06-07T02:05:12.200Z,64.47
2023-06-07T02:07:56.863Z,64.61
2023-06-07T02:10:40.655Z,64.65
2023-06-07T02:13:28.593Z,65.03
2023-06-07T02:16:08.180Z,65.04
2023-06-07T02:18:47.934Z,65.07
2023-06-07T02:21:27.272Z,65.05
2023-06-07T02:24:08.101Z,65.19
2023-06-07T02:26:47.833Z,65.06
2023-06-07T02:29:32.223Z,64.96
2023-06-07T02:32:12.451Z,65.23
2023-06-07T02:34:51.924Z,65.10
2023-06-07T02:37:31.265Z,65.07
2023-06-07T02:40:13.142Z,65.17
2023-06-07T02:42:53.332Z,64.94
2023-06-07T02:45:38.023Z,65.35
2023-06-07T02:48:18.723Z,65.47
2023-06-07T02:50:58.060Z,65.48
2023-06-07T02:53:37.453Z,65.45
2023-06-07T02:56:17.189Z,65.40
2023-06-07T02:58:56.850Z,65.70
2023-06-07T03:01:41.642Z,66.06
2023-06-07T03:04:20.997Z,66.17
2023-06-07T03:07:01.185Z,66.44
2023-06-07T03:09:40.678Z,66.40
2023-06-07T03:12:20.026Z,66.63
2023-06-07T03:14:59.339Z,67.08
2023-06-07T03:17:44.273Z,67.29
2023-06-07T03:20:23.993Z,67.72
2023-06-07T03:23:03.386Z,67.85
2023-06-07T03:25:43.072Z,67.92
2023-06-07T03:28:25.059Z,68.11
2023-06-07T03:31:04.469Z,68.28
2023-06-07T03:33:48.942Z,68.52
2023-06-07T03:36:31.121Z,68.61
2023-06-07T03:39:10.463Z,68.89
2023-06-07T03:41:49.831Z,68.81
2023-06-07T03:44:29.173Z,68.74
2023-06-07T03:47:08.554Z,68.71
2023-06-07T03:49:52.954Z,68.53
2023-06-07T03:52:32.517Z,68.30
2023-06-07T03:55:13.958Z,68.20
2023-06-07T03:57:57.152Z,68.23
2023-06-07T04:00:36.467Z,68.31
2023-06-07T04:03:15.960Z,67.94
2023-06-07T04:06:00.382Z,67.66
2023-06-07T04:08:39.681Z,67.41
2023-06-07T04:11:19.134Z,67.49
2023-06-07T04:13:58.755Z,67.42
2023-06-07T04:16:38.166Z,67.12
2023-06-07T04:19:17.567Z,67.31
2023-06-07T04:22:02.042Z,67.45
2023-06-07T04:24:41.617Z,67.87
2023-06-07T04:27:20.942Z,67.39
2023-06-07T04:30:04.296Z,67.07
2023-06-07T04:32:43.907Z,66.92
2023-06-07T04:35:23.590Z,66.91
2023-06-07T04:38:10.417Z,66.81
2023-06-07T04:40:51.519Z,66.96
2023-06-07T04:43:30.893Z,66.84
2023-06-07T04:46:11.576Z,66.94
2023-06-07T04:48:50.944Z,67.22
2023-06-07T04:51:33.645Z,66.93
2023-06-07T04:54:19.007Z,66.77
2023-06-07T04:56:59.732Z,66.89
2023-06-07T04:59:45.188Z,66.25
2023-06-07T05:02:25.012Z,66.12
2023-06-07T05:05:04.563Z,65.49
2023-06-07T05:07:43.904Z,65.42
2023-06-07T05:10:28.445Z,65.82
2023-06-07T05:13:07.736Z,65.79
2023-06-07T05:15:47.119Z,66.09
2023-06-07T05:18:26.985Z,65.42
2023-06-07T05:21:06.328Z,65.46
2023-06-07T05:23:45.683Z,65.85
2023-06-07T05:26:30.116Z,65.90
2023-06-07T05:29:09.414Z,65.12
2023-06-07T05:31:49.127Z,64.49
2023-06-07T05:34:28.458Z,64.33
2023-06-07T05:37:07.758Z,64.84
2023-06-07T05:39:48.214Z,65.21
2023-06-07T05:42:32.718Z,64.46
2023-06-07T05:45:13.977Z,64.22
2023-06-07T05:47:53.299Z,64.20
2023-06-07T05:50:32.576Z,62.66
2023-06-07T05:53:11.895Z,63.23
2023-06-07T05:55:51.712Z,63.30
2023-06-07T05:58:36.139Z,62.46
2023-06-07T06:01:15.570Z,62.15
2023-06-07T06:03:54.956Z,61.66
2023-06-07T06:06:34.245Z,61.40
2023-06-07T06:09:13.811Z,61.55
2023-06-07T06:11:53.673Z,61.57
2023-06-07T06:14:38.067Z,61.92
2023-06-07T06:17:17.740Z,62.11
2023-06-07T06:19:58.033Z,61.46
2023-06-07T06:22:37.298Z,61.09
2023-06-07T06:25:16.961Z,61.05
2023-06-07T06:27:56.698Z,61.03
2023-06-07T06:30:41.182Z,61.43
2023-06-07T06:33:20.478Z,60.95
2023-06-07T06:35:59.930Z,60.66
2023-06-07T06:38:39.207Z,60.71
2023-06-07T06:41:18.840Z,60.63
2023-06-07T06:43:58.197Z,60.91
2023-06-07T06:46:43.457Z,60.52
2023-06-07T06:49:23.013Z,60.22
2023-06-07T06:52:02.408Z,60.12
2023-06-07T06:54:41.776Z,60.14
2023-06-07T06:57:21.138Z,60.23
2023-06-07T07:00:00.627Z,60.61
2023-06-07T07:02:45.955Z,60.01
2023-06-07T07:05:27.290Z,59.86
2023-06-07T07:08:10.403Z,59.94
2023-06-07T07:10:50.313Z,59.24
2023-06-07T07:13:29.617Z,58.78
2023-06-07T07:16:08.928Z,58.52
2023-06-07T07:18:53.430Z,58.32
2023-06-07T07:21:35.305Z,58.25
2023-06-07T07:24:15.893Z,58.25
2023-06-07T07:26:55.481Z,57.92
2023-06-07T07:29:34.796Z,56.63
2023-06-07T07:32:15.348Z,55.63
2023-06-07T07:34:59.849Z,55.65
2023-06-07T07:37:40.713Z,54.71
2023-06-07T07:40:20.465Z,54.72
2023-06-07T07:42:59.928Z,54.63
2023-06-07T07:45:39.258Z,54.75
2023-06-07T07:48:18.590Z,54.99
2023-06-07T07:51:04.379Z,55.45
2023-06-07T07:53:44.393Z,54.53
2023-06-07T07:56:23.708Z,54.09
2023-06-07T07:59:02.996Z,54.75
2023-06-07T08:01:42.306Z,54.84
2023-06-07T08:04:21.644Z,54.44
2023-06-07T08:07:06.002Z,55.16
2023-06-07T08:09:45.295Z,55.28
2023-06-07T08:12:24.638Z,55.61
2023-06-07T08:15:03.969Z,55.65
2023-06-07T08:17:43.383Z,55.47
2023-06-07T08:20:22.874Z,55.26
2023-06-07T08:23:07.561Z,54.57
2023-06-07T08:25:46.927Z,54.32
2023-06-07T08:28:26.387Z,54.07
2023-06-07T08:31:06.067Z,54.16
2023-06-07T08:33:45.563Z,53.98
2023-06-07T08:36:25.375Z,54.50
2023-06-07T08:39:10.320Z,53.97
2023-06-07T08:41:49.682Z,53.55
2023-06-07T08:44:29.078Z,53.26
2023-06-07T08:47:09.823Z,53.18
2023-06-07T08:49:52.138Z,52.64
2023-06-07T08:52:32.113Z,52.92
2023-06-07T08:55:18.799Z,53.88
2023-06-07T08:57:58.617Z,52.70
2023-06-07T09:00:38.503Z,52.88
2023-06-07T09:03:20.227Z,52.47
2023-06-07T09:06:03.882Z,53.33
2023-06-07T09:08:43.628Z,53.22
2023-06-07T09:11:28.844Z,53.15
2023-06-07T09:14:09.080Z,53.16
2023-06-07T09:17:07.288Z,53.13
2023-06-07T09:19:48.639Z,53.35
2023-06-07T09:22:32.398Z,53.54
2023-06-07T09:25:15.423Z,52.94
2023-06-07T09:28:03.760Z,52.80
2023-06-07T09:30:43.111Z,52.57
2023-06-07T09:33:36.089Z,52.39
2023-06-07T09:36:18.051Z,52.51
2023-06-07T09:38:58.470Z,52.40
2023-06-07T09:41:39.123Z,51.51
2023-06-07T09:44:29.206Z,50.78
2023-06-07T09:47:08.684Z,50.84
2023-06-07T09:49:48.129Z,49.45
2023-06-07T09:52:30.357Z,48.63
2023-06-07T09:55:10.938Z,48.73
2023-06-07T09:57:50.329Z,48.19
2023-06-07T10:00:34.866Z,47.36
2023-06-07T10:03:14.884Z,46.40
2023-06-07T10:05:54.423Z,45.32
2023-06-07T10:08:33.940Z,45.26
2023-06-07T10:11:14.544Z,44.63
2023-06-07T10:13:55.722Z,44.24
2023-06-07T10:16:44.097Z,46.19
2023-06-07T10:19:29.374Z,45.28
2023-06-07T10:22:10.709Z,44.14
2023-06-07T10:25:01.958Z,44.67
2023-06-07T10:27:58.191Z,44.13
2023-06-07T10:30:40.948Z,42.88
2023-06-07T10:33:26.614Z,42.93
2023-06-07T10:36:06.553Z,43.65
2023-06-07T10:38:46.566Z,43.42
2023-06-07T10:41:26.592Z,43.88
2023-06-07T10:44:07.928Z,44.26
2023-06-07T10:46:49.739Z,44.73
2023-06-07T10:49:50.791Z,44.12
2023-06-07T10:52:31.016Z,42.55
2023-06-07T10:55:33.864Z,42.19
2023-06-07T10:58:34.038Z,42.17
2023-06-07T11:01:32.871Z,43.07
2023-06-07T11:04:12.403Z,42.53
2023-06-07T11:07:22.297Z,42.55
2023-06-07T11:10:32.139Z,43.70
2023-06-07T11:13:16.483Z,42.98
2023-06-07T11:15:55.853Z,43.59
2023-06-07T11:19:02.745Z,42.82
2023-06-07T11:22:11.898Z,40.94
2023-06-07T11:24:56.333Z,40.61
2023-06-07T11:27:35.739Z,40.07
2023-06-07T11:30:20.963Z,40.15
2023-06-07T11:33:00.305Z,40.54
2023-06-07T11:35:39.671Z,41.16
2023-06-07T11:38:19.175Z,41.49
2023-06-07T11:40:58.718Z,41.27
2023-06-07T11:43:39.262Z,41.59
2023-06-07T11:46:25.052Z,41.54
2023-06-07T11:49:04.493Z,41.17
2023-06-07T11:51:43.998Z,41.90
2023-06-07T11:54:24.558Z,40.97
2023-06-07T11:57:04.598Z,40.64
2023-06-07T11:59:44.386Z,41.45
2023-06-07T12:02:29.927Z,39.82
2023-06-07T12:05:11.686Z,38.95
2023-06-07T12:07:50.987Z,37.99
2023-06-07T12:10:34.826Z,38.62
2023-06-07T12:13:21.027Z,37.69
2023-06-07T12:16:03.094Z,37.43
2023-06-07T12:18:49.533Z,37.63
2023-06-07T12:21:32.104Z,37.74
2023-06-07T12:24:12.013Z,37.80
2023-06-07T12:26:51.480Z,36.39
2023-06-07T12:29:36.340Z,36.53
2023-06-07T12:32:20.352Z,35.82
2023-06-07T12:35:08.911Z,35.17
2023-06-07T12:37:48.448Z,35.34
2023-06-07T12:40:27.722Z,34.74
2023-06-07T12:43:07.490Z,34.34
2023-06-07T12:45:46.821Z,35.35
2023-06-07T12:48:26.175Z,34.44
2023-06-07T12:51:10.886Z,34.00
2023-06-07T12:53:50.648Z,34.63
2023-06-07T12:56:30.363Z,36.24
2023-06-07T12:59:09.925Z,35.28
2023-06-07T13:01:49.266Z,36.04
2023-06-07T13:04:31.037Z,34.93
2023-06-07T13:07:15.829Z,34.33
2023-06-07T13:09:55.114Z,33.53
2023-06-07T13:12:35.065Z,33.10
2023-06-07T13:15:17.073Z,33.40
2023-06-07T13:17:56.566Z,34.19
2023-06-07T13:20:36.029Z,34.79
2023-06-07T13:23:20.537Z,34.30
2023-06-07T13:25:59.980Z,33.08
2023-06-07T13:28:39.382Z,32.22
2023-06-07T13:31:19.014Z,33.20
2023-06-07T13:33:58.378Z,33.13
2023-06-07T13:36:39.063Z,32.61
2023-06-07T13:39:23.445Z,31.56
2023-06-07T13:42:02.766Z,31.82
2023-06-07T13:44:42.127Z,31.17
2023-06-07T13:47:21.855Z,31.28
2023-06-07T13:50:01.446Z,30.03
2023-06-07T13:52:40.932Z,30.17
2023-06-07T13:55:25.557Z,29.90
2023-06-07T13:58:04.935Z,29.54
2023-06-07T14:00:44.277Z,29.88
2023-06-07T14:03:24.283Z,30.53
2023-06-07T14:06:03.856Z,30.49
2023-06-07T14:08:43.302Z,29.49
2023-06-07T14:11:28.548Z,29.66
2023-06-07T14:14:07.886Z,29.96
2023-06-07T14:16:47.730Z,29.92
2023-06-07T14:19:27.212Z,29.28
2023-06-07T14:22:06.935Z,29.86
2023-06-07T14:24:46.186Z,30.35
2023-06-07T14:27:31.052Z,30.98
2023-06-07T14:30:10.652Z,31.86
2023-06-07T14:32:50.117Z,32.44
2023-06-07T14:35:29.445Z,31.04
2023-06-07T14:38:08.809Z,30.86
2023-06-07T14:40:48.269Z,29.94
2023-06-07T14:43:32.885Z,29.39
2023-06-07T14:46:12.543Z,29.91
2023-06-07T14:48:52.833Z,30.12
2023-06-07T14:51:32.433Z,30.74
2023-06-07T14:54:11.856Z,30.36
2023-06-07T14:56:51.229Z,30.41
2023-06-07T14:59:36.960Z,30.81
2023-06-07T15:02:17.633Z,31.70
2023-06-07T15:04:56.905Z,31.41
2023-06-07T15:07:36.255Z,30.93
2023-06-07T15:10:16.397Z,30.95
2023-06-07T15:12:56.994Z,30.60
2023-06-07T15:15:41.434Z,30.98
2023-06-07T15:18:22.899Z,30.43
2023-06-07T15:21:02.350Z,31.81
2023-06-07T15:23:41.832Z,32.39
2023-06-07T15:26:21.143Z,32.75
2023-06-07T15:29:00.490Z,32.29
2023-06-07T15:31:45.001Z,31.96
2023-06-07T15:34:27.774Z,30.92
2023-06-07T15:37:08.390Z,30.15
2023-06-07T15:39:47.729Z,30.12
2023-06-07T15:42:27.051Z,30.48
2023-06-07T15:45:06.426Z,29.54
2023-06-07T15:48:06.428Z,29.20
2023-06-07T15:50:46.688Z,28.94
2023-06-07T15:53:26.363Z,28.73
2023-06-07T15:56:05.669Z,29.07
2023-06-07T15:58:44.958Z,29.38
2023-06-07T16:01:24.664Z,29.06
2023-06-07T16:04:09.179Z,29.02
2023-06-07T16:06:49.494Z,28.61
2023-06-07T16:09:29.293Z,29.03
2023-06-07T16:12:09.011Z,28.89
2023-06-07T16:14:48.319Z,28.64
2023-06-07T16:17:28.175Z,28.93
2023-06-07T16:20:14.334Z,28.93
2023-06-07T16:22:53.925Z,28.58
2023-06-07T16:25:33.274Z,29.26
2023-06-07T16:28:12.882Z,29.23
2023-06-07T16:30:52.742Z,29.16
2023-06-07T16:33:32.131Z,28.05
2023-06-07T16:36:17.050Z,28.05
2023-06-07T16:38:57.354Z,28.14
2023-06-07T16:41:39.924Z,28.59
2023-06-07T16:44:20.438Z,29.24
2023-06-07T16:46:59.924Z,28.95
2023-06-07T16:49:40.126Z,28.80
2023-06-07T16:52:25.179Z,28.56
2023-06-07T16:55:05.395Z,29.21
2023-06-07T16:57:45.076Z,29.04
2023-06-07T17:00:25.361Z,28.78
2023-06-07T17:03:04.769Z,28.85
2023-06-07T17:05:44.079Z,29.83
2023-06-07T17:08:28.767Z,30.68
2023-06-07T17:11:10.226Z,31.58
2023-06-07T17:13:50.225Z,32.15
2023-06-07T17:16:29.694Z,32.93
2023-06-07T17:19:09.150Z,33.32
2023-06-07T17:21:48.435Z,33.36
2023-06-07T17:24:32.801Z,32.96
2023-06-07T17:27:12.953Z,33.31
2023-06-07T17:29:52.512Z,33.14
2023-06-07T17:32:31.868Z,33.33
2023-06-07T17:35:11.971Z,34.14
2023-06-07T17:37:51.297Z,33.30
2023-06-07T17:40:35.704Z,34.66
2023-06-07T17:43:14.996Z,36.49
2023-06-07T17:45:55.042Z,37.35
2023-06-07T17:48:34.401Z,37.08
2023-06-07T17:51:14.089Z,37.43
2023-06-07T17:53:53.369Z,38.16
2023-06-07T17:56:37.750Z,38.78
2023-06-07T17:59:17.055Z,39.10
2023-06-07T18:01:56.378Z,39.89
2023-06-07T18:04:35.790Z,40.00
2023-06-07T18:07:15.088Z,40.38
2023-06-07T18:09:54.410Z,40.11
2023-06-07T18:12:41.185Z,40.71
2023-06-07T18:15:20.541Z,41.06
2023-06-07T18:18:00.049Z,41.04
2023-06-07T18:20:39.495Z,40.50
2023-06-07T18:23:19.915Z,41.11
2023-06-07T18:26:02.369Z,41.58
2023-06-07T18:28:46.748Z,42.07
2023-06-07T18:31:26.117Z,42.69
2023-06-07T18:34:05.930Z,43.00
2023-06-07T18:36:45.300Z,43.52
2023-06-07T18:39:25.524Z,44.12
2023-06-07T18:42:05.072Z,44.54
2023-06-07T18:44:49.441Z,45.01
2023-06-07T18:47:28.810Z,45.34
2023-06-07T18:50:08.814Z,45.53
2023-06-07T18:52:48.314Z,45.34
2023-06-07T18:55:27.732Z,45.35
2023-06-07T18:58:07.473Z,45.64
2023-06-07T19:00:51.954Z,46.69
2023-06-07T19:03:31.463Z,47.16
2023-06-07T19:06:12.055Z,47.33
2023-06-07T19:08:51.393Z,47.55
2023-06-07T19:11:30.707Z,48.07
2023-06-07T19:14:10.042Z,47.87
2023-06-07T19:16:54.515Z,47.95
2023-06-07T19:19:33.942Z,48.36
2023-06-07T19:22:14.698Z,48.71
2023-06-07T19:24:54.000Z,49.01
2023-06-07T19:27:33.268Z,49.26
2023-06-07T19:30:14.176Z,49.32
2023-06-07T19:32:58.615Z,49.75
2023-06-07T19:35:38.001Z,49.75
2023-06-07T19:38:17.460Z,49.31
2023-06-07T19:40:56.714Z,49.25
2023-06-07T19:43:36.089Z,49.68
2023-06-07T19:46:15.410Z,49.99
2023-06-07T19:48:59.789Z,50.59
2023-06-07T19:51:40.354Z,50.90
2023-06-07T19:54:19.719Z,50.97
2023-06-07T19:56:59.133Z,51.10
2023-06-07T19:59:41.880Z,51.37
2023-06-07T20:02:21.357Z,50.99
2023-06-07T20:05:06.154Z,51.03
2023-06-07T20:07:45.462Z,51.03
2023-06-07T20:10:25.198Z,51.24
2023-06-07T20:13:07.907Z,51.73
2023-06-07T20:15:47.352Z,52.00
2023-06-07T20:18:26.668Z,52.33
2023-06-07T20:21:11.289Z,52.73
2023-06-07T20:23:50.686Z,52.84
2023-06-07T20:26:29.989Z,53.22
2023-06-07T20:29:09.293Z,53.34
2023-06-07T20:31:50.155Z,53.19
2023-06-07T20:34:29.612Z,53.49
2023-06-07T20:37:14.069Z,53.59
2023-06-07T20:39:53.408Z,53.50
2023-06-07T20:42:32.693Z,53.63
2023-06-07T20:45:14.728Z,54.34
2023-06-07T20:47:54.010Z,54.60
2023-06-07T20:50:33.418Z,54.92
2023-06-07T20:53:17.833Z,55.21
2023-06-07T20:55:57.196Z,55.71
2023-06-07T20:58:36.582Z,56.07
2023-06-07T21:01:16.801Z,56.51
2023-06-07T21:03:57.815Z,56.82
2023-06-07T21:06:38.117Z,56.86
2023-06-07T21:09:22.570Z,56.82
2023-06-07T21:12:02.220Z,56.60
2023-06-07T21:14:41.837Z,56.62
2023-06-07T21:17:21.152Z,56.57
2023-06-07T21:20:00.469Z,56.66
2023-06-07T21:22:39.757Z,56.85
2023-06-07T21:25:24.291Z,56.95
2023-06-07T21:28:03.874Z,56.75
2023-06-07T21:30:43.352Z,56.30
2023-06-07T21:33:26.380Z,56.26
2023-06-07T21:36:05.669Z,57.02
2023-06-07T21:38:45.009Z,57.60
2023-06-07T21:41:31.193Z,58.06
2023-06-07T21:44:10.627Z,58.34
2023-06-07T21:46:49.913Z,58.41
2023-06-07T21:49:29.268Z,58.12
2023-06-07T21:52:08.615Z,57.81
2023-06-07T21:54:52.582Z,57.91
2023-06-07T21:57:36.965Z,58.30
2023-06-07T22:00:17.501Z,57.79
2023-06-07T22:02:57.005Z,57.68
2023-06-07T22:05:36.377Z,58.32
2023-06-07T22:08:16.722Z,58.83
2023-06-07T22:10:56.021Z,59.34
2023-06-07T22:13:41.851Z,59.73
2023-06-07T22:16:21.171Z,59.90
2023-06-07T22:19:02.034Z,59.80
2023-06-07T22:21:41.369Z,59.89
2023-06-07T22:24:22.005Z,60.28
2023-06-07T22:27:01.632Z,60.57
2023-06-07T22:29:48.389Z,60.66
2023-06-07T22:32:30.986Z,61.06
2023-06-07T22:35:11.227Z,60.98
2023-06-07T22:37:51.377Z,60.96
2023-06-07T22:40:30.684Z,60.77
2023-06-07T22:43:10.038Z,60.82
2023-06-07T22:45:54.631Z,60.78
2023-06-07T22:48:34.380Z,61.08
2023-06-07T22:51:13.718Z,61.21
2023-06-07T22:53:53.102Z,61.41
2023-06-07T22:56:32.525Z,61.29
2023-06-07T22:59:12.289Z,61.31
2023-06-07T23:01:57.455Z,61.65
2023-06-07T23:07:24.867Z,61.79
2023-06-07T23:10:04.490Z,62.00
2023-06-07T23:12:45.105Z,62.29
2023-06-07T23:15:25.702Z,62.52
2023-06-07T23:18:10.325Z,62.34
2023-06-07T23:20:50.913Z,62.31
2023-06-07T23:23:31.623Z,62.48
2023-06-07T23:26:11.653Z,62.10
2023-06-07T23:28:50.992Z,62.13
2023-06-07T23:31:30.374Z,62.22
2023-06-07T23:34:14.782Z,62.68
2023-06-07T23:36:54.079Z,62.80
2023-06-07T23:39:33.553Z,62.60
2023-06-07T23:42:13.257Z,62.60
2023-06-07T23:44:53.341Z,62.62
2023-06-07T23:47:32.744Z,62.69
2023-06-07T23:50:17.839Z,62.87
2023-06-07T23:52:57.125Z,62.81
2023-06-07T23:55:36.464Z,63.21
2023-06-07T23:58:15.820Z,63.21
